Aérodrome :







RETROUVEZ-NOUS SUR...

 
LOGIN :

S'inscrire | Disclaimer

   EN    FR    IT 

 









Légende :    VFR   VFR Marginal   IFR   IFR Intensif   IFR Très Intensif
Visi : 
Plafond : 
>= 8 km
>= 3000ft
5 à 8 km
1000 à 3000 ft
1500m à 5 km
500 à 1000 ft
800 à 1500m
200 à 500 ft
< 800m
< 200 ft
Symboles :   Orages  Brouillard  Fortes neiges  Fortes précipitations  Vent > 20 kt






- Altitude de l'aérodrome : 474 ft


KPTD - Potsdam Municipal-Damon field

DERNIER METAR :
  • 020715Z AUTO VRB04KT 10SM OVC047 03/M01 A2988 RMK AO2

METARs EXPIRÉS :
  • 020655Z AUTO 32004KT 10SM OVC046 03/M01 A2988 RMK AO2
  • 020635Z AUTO 00000KT 10SM OVC044 03/M01 A2988 RMK AO2
  • 020615Z AUTO 00000KT 10SM OVC045 03/M01 A2989 RMK AO2
  • 020555Z AUTO 00000KT 10SM OVC040 03/M01 A2989 RMK AO2
  • 020535Z AUTO 00000KT 10SM BKN036 OVC043 02/M00 A2989 RMK AO2
  • 020515Z AUTO 00000KT 10SM OVC039 03/M01 A2989 RMK AO2
  • 020455Z AUTO 00000KT 10SM BKN041 OVC070 03/M01 A2989 RMK AO2
  • 020435Z AUTO 00000KT 10SM BKN042 OVC075 03/M01 A2989 RMK AO2

TAF N/A



MET'MAP, la Météo Aéronautique d'un coup d'oeil ! - Copyright ORBIFLY Décembre 2007 - Disclaimer

ORBIFLY MET'MAP TEAM :

Programmation & Développement : Alexandra Zaïnal
Sur une idée originale de : Baudouin d'Aumeries
Assistance à la programmation : Marc-Olivier Méhu
Soutien technique & logistique : Manuel Goepfert

Contact : metmap@orbifly.com




SOURCES & CREDITS :

   NOAA